Time;durP1;ratioP1;P1;durP2;ratioP2;P2;SDS_P1;SDS_P2;PMS_P1;PMS_P2;Temp;Humidity;BMP_temperature;BMP_pressure;BME280_temperature;BME280_humidity;BME280_pressure;Samples;Min_cycle;Max_cycle;Signal;HPM_P1;HPM_P2
2022/04/20 05:15:38;;;;;;;7.50;4.70;;;;;;;2.27;98.23;98757.81;5143492;27;20358;-82
2022/04/20 05:18:06;;;;;;;10.43;5.65;;;;;;;2.26;97.65;98734.69;5110130;27;20048;-82
2022/04/20 05:20:33;;;;;;;16.27;7.10;;;;;;;2.56;96.34;98756.94;5106669;27;20050;-82
2022/04/20 05:22:59;;;;;;;10.38;5.85;;;;;;;2.76;94.90;98755.09;5112665;27;20051;-82
2022/04/20 05:25:26;;;;;;;8.63;5.88;;;;;;;2.89;92.85;98746.69;5116976;28;20478;-83
2022/04/20 05:27:53;;;;;;;11.10;5.55;;;;;;;3.21;91.72;98761.56;5118796;27;20051;-83
2022/04/20 05:30:19;;;;;;;6.45;4.32;;;;;;;3.35;90.50;98750.34;5107830;28;20325;-83
2022/04/20 05:32:47;;;;;;;5.78;3.95;;;;;;;3.65;89.27;98764.47;5105260;28;20047;-83
2022/04/20 05:35:14;;;;;;;6.43;4.30;;;;;;;3.85;87.34;98760.66;5105378;27;20043;-83
2022/04/20 05:43:10;;;;;;;6.32;3.75;;;;;;;4.83;80.99;98745.50;5091501;28;20513;-83
2022/04/20 05:45:37;;;;;;;5.53;3.95;;;;;;;5.26;79.14;98744.56;5094528;28;20048;-83
2022/04/20 05:48:08;;;;;;;44.03;5.53;;;;;;;5.63;76.52;98746.06;5113694;28;20220;-83
2022/04/20 05:50:35;;;;;;;13.18;4.38;;;;;;;5.90;74.03;98752.22;5100656;28;20131;-83
2022/04/20 05:53:01;;;;;;;46.42;5.82;;;;;;;6.10;73.75;98738.47;5113867;27;20055;-83
2022/04/20 05:55:28;;;;;;;39.15;6.03;;;;;;;6.55;72.77;98747.94;5112695;27;20044;-82
2022/04/20 05:57:55;;;;;;;23.98;5.57;;;;;;;7.06;70.19;98737.72;5118940;27;20403;-82
2022/04/20 06:00:21;;;;;;;23.35;4.13;;;;;;;7.46;66.99;98737.75;5120176;27;20047;-83
2022/04/20 06:02:48;;;;;;;25.52;4.22;;;;;;;7.77;65.46;98742.34;5119802;27;20047;-83
2022/04/20 06:05:16;;;;;;;10.93;4.50;;;;;;;8.21;63.80;98743.63;5104914;28;20048;-83
2022/04/20 06:07:42;;;;;;;8.18;3.00;;;;;;;8.33;60.28;98750.28;5117266;27;20470;-83
2022/04/20 06:10:10;;;;;;;5.28;3.00;;;;;;;8.51;59.90;98750.00;5109242;27;20047;-83
2022/04/20 06:12:37;;;;;;;8.27;3.17;;;;;;;8.84;58.30;98731.59;5104337;27;20127;-82
2022/04/20 06:15:04;;;;;;;3.38;2.78;;;;;;;8.89;57.46;98752.72;5102232;28;20526;-83
2022/04/20 06:17:30;;;;;;;5.68;3.03;;;;;;;9.13;57.76;98737.25;5097592;28;20044;-83
2022/04/20 06:20:00;;;;;;;4.43;3.17;;;;;;;9.61;55.62;98753.13;5092280;28;20056;-84
2022/04/20 06:22:28;;;;;;;3.30;2.75;;;;;;;9.47;54.59;98752.09;5101546;28;20052;-83
2022/04/20 06:24:55;;;;;;;4.97;2.78;;;;;;;9.39;54.02;98724.06;5098352;28;20040;-83
2022/04/20 06:27:22;;;;;;;5.38;2.90;;;;;;;9.37;54.56;98755.94;5104142;28;20116;-84
2022/04/20 06:29:50;;;;;;;3.72;3.03;;;;;;;9.34;54.63;98752.78;5113614;27;20076;-85
2022/04/20 06:32:33;;;;;;;;;;;;;;;;;;;;;
2022/04/20 06:35:04;;;;;;;3.35;2.72;;;;;;;8.70;56.44;98762.19;5127139;27;20048;-81
2022/04/20 06:37:53;;;;;;;;;;;;;;;8.81;55.74;98756.34;5107881;27;20127;-85
2022/04/20 06:40:22;;;;;;;4.30;2.53;;;;;;;9.21;55.22;98735.28;5095216;28;19920;-83
2022/04/20 06:42:49;;;;;;;3.45;2.38;;;;;;;9.50;55.84;98758.00;5119230;27;20052;-83
2022/04/20 06:45:15;;;;;;;8.25;2.85;;;;;;;9.17;53.83;98746.69;5111117;28;20237;-84
2022/04/20 06:47:42;;;;;;;4.90;3.30;;;;;;;9.41;53.56;98761.84;5128666;27;20054;-83
2022/04/20 06:50:10;;;;;;;4.07;2.83;;;;;;;9.82;54.32;98730.63;5133314;27;20637;-85
2022/04/20 07:00:51;;;;;;;3.63;2.38;;;;;;;10.73;49.86;98735.53;5134462;27;20050;-85
2022/04/20 07:03:18;;;;;;;2.22;2.03;;;;;;;10.45;49.89;98739.91;5142564;27;20146;-84
2022/04/20 07:05:45;;;;;;;5.35;2.47;;;;;;;10.48;51.03;98721.50;5143236;27;20077;-84
2022/04/20 07:08:13;;;;;;;5.63;2.80;;;;;;;10.15;50.38;98747.31;5135572;27;20096;-84
2022/04/20 07:10:41;;;;;;;5.10;2.78;;;;;;;10.32;50.79;98718.00;5135486;27;20047;-84
2022/04/20 07:13:09;;;;;;;3.58;2.58;;;;;;;10.71;50.73;98740.34;5113982;28;20103;-84
2022/04/20 07:15:37;;;;;;;2.53;2.08;;;;;;;10.84;50.06;98728.72;5131452;27;20043;-83
2022/04/20 07:18:05;;;;;;;3.10;2.55;;;;;;;10.76;48.70;98716.13;5156083;27;20047;-83
2022/04/20 07:20:34;;;;;;;4.78;2.65;;;;;;;10.49;50.59;98721.31;5150013;27;20072;-83
2022/04/20 07:23:01;;;;;;;4.03;1.95;;;;;;;10.79;49.47;98718.44;5141341;27;20138;-84
2022/04/20 07:25:29;;;;;;;5.30;2.40;;;;;;;10.51;51.01;98707.53;5122698;27;20050;-84
2022/04/20 07:27:58;;;;;;;3.20;2.30;;;;;;;10.40;49.60;98708.91;5139080;27;20051;-84
2022/04/20 07:30:25;;;;;;;3.88;2.13;;;;;;;10.38;49.18;98727.28;5119143;27;20085;-84
2022/04/20 07:32:52;;;;;;;3.58;2.10;;;;;;;10.05;49.32;98744.06;5127313;27;20053;-84
2022/04/20 07:35:19;;;;;;;3.72;2.20;;;;;;;9.86;50.14;98721.91;5112002;27;20047;-84
2022/04/20 07:37:45;;;;;;;4.50;2.15;;;;;;;9.87;49.45;98714.59;5118204;27;20078;-83
2022/04/20 07:40:14;;;;;;;3.83;2.08;;;;;;;10.03;48.93;98736.09;5129699;27;20099;-84
2022/04/20 07:42:41;;;;;;;3.63;2.08;;;;;;;10.06;49.23;98743.03;5135787;27;20070;-84
2022/04/20 07:45:10;;;;;;;4.75;2.30;;;;;;;9.96;50.26;98726.19;5137911;27;20043;-84
2022/04/20 07:47:37;;;;;;;2.58;2.00;;;;;;;9.72;49.08;98722.78;5116438;27;20054;-84
2022/04/20 07:50:21;;;;;;;2.47;2.03;;;;;;;9.79;49.70;98745.44;5137326;27;20046;-83
2022/04/20 07:52:49;;;;;;;2.58;2.10;;;;;;;9.67;49.88;98734.22;5128776;27;20068;-84
2022/04/20 07:55:18;;;;;;;6.57;2.35;;;;;;;9.55;51.19;98725.72;5142946;27;20035;-84
2022/04/20 07:57:45;;;;;;;2.85;2.10;;;;;;;9.84;49.16;98742.97;5127356;27;20417;-83
2022/04/20 08:00:15;;;;;;;2.67;2.10;;;;;;;9.71;49.41;98719.25;5138216;27;20046;-84
2022/04/20 08:02:43;;;;;;;3.33;2.00;;;;;;;9.99;48.83;98736.66;5133249;27;20035;-85
2022/04/20 08:05:11;;;;;;;2.67;1.90;;;;;;;10.07;50.29;98745.56;5111062;27;20051;-83
2022/04/20 08:07:55;;;;;;;3.33;1.92;;;;;;;9.90;47.38;98736.78;5121987;27;20043;-84
2022/04/20 08:10:22;;;;;;;3.33;2.20;;;;;;;9.67;47.02;98761.34;5141039;27;20095;-83
2022/04/20 08:12:48;;;;;;;3.50;2.17;;;;;;;9.81;49.24;98770.50;5153087;27;20620;-84
2022/04/20 08:15:16;;;;;;;3.85;2.08;;;;;;;9.79;47.62;98744.59;5146040;27;20069;-84
2022/04/20 08:17:43;;;;;;;4.32;2.53;;;;;;;9.78;49.22;98759.19;5125247;27;20139;-83
2022/04/20 08:20:10;;;;;;;2.83;2.17;;;;;;;9.90;49.48;98754.94;5129501;27;20074;-84
2022/04/20 08:22:41;;;;;;;5.15;2.67;;;;;;;10.04;48.09;98734.22;5130857;27;20550;-83
2022/04/20 08:25:09;;;;;;;2.45;2.17;;;;;;;9.97;49.55;98760.47;5111956;28;20048;-83
2022/04/20 08:27:36;;;;;;;3.45;2.42;;;;;;;10.24;47.77;98757.00;5122906;27;20043;-83
2022/04/20 08:30:04;;;;;;;4.45;2.20;;;;;;;10.40;48.21;98746.94;5132627;27;20055;-84
2022/04/20 08:32:32;;;;;;;3.10;1.92;;;;;;;10.53;47.57;98749.78;5129577;27;20054;-84
2022/04/20 08:34:59;;;;;;;3.35;2.08;;;;;;;10.55;47.70;98744.16;5130393;27;20143;-83
2022/04/20 08:37:25;;;;;;;2.30;1.92;;;;;;;10.84;46.39;98753.19;5132554;27;20047;-83
2022/04/20 08:39:52;;;;;;;4.00;2.30;;;;;;;10.75;45.66;98738.91;5132349;27;20057;-84
2022/04/20 08:42:22;;;;;;;2.30;1.90;;;;;;;10.63;44.22;98750.31;5128864;27;20561;-83
2022/04/20 08:44:50;;;;;;;2.55;1.90;;;;;;;10.36;45.56;98715.78;5132519;27;20107;-83
2022/04/20 08:47:21;;;;;;;3.53;1.98;;;;;;;10.73;46.34;98739.09;5127446;27;20043;-83
2022/04/20 08:49:50;;;;;;;4.25;2.33;;;;;;;10.70;45.01;98750.34;5117616;27;20402;-83
2022/04/20 08:55:04;;;;;;;3.15;1.90;;;;;;;10.75;45.83;98715.28;5112213;28;20042;-84
2022/04/20 08:57:32;;;;;;;2.63;1.90;;;;;;;11.15;48.36;98725.59;5126113;27;20104;-83
2022/04/20 08:59:59;;;;;;;3.38;2.60;;;;;;;11.19;43.70;98723.34;5132001;27;20146;-83
2022/04/20 09:02:28;;;;;;;6.75;2.42;;;;;;;10.95;42.48;98714.59;5131418;27;20055;-83
2022/04/20 09:04:56;;;;;;;4.07;2.08;;;;;;;10.97;42.36;98735.13;5131039;27;20043;-83
2022/04/20 09:07:24;;;;;;;1.85;1.67;;;;;;;11.07;43.69;98731.22;5132217;27;20047;-83
2022/04/20 09:09:51;;;;;;;2.92;2.28;;;;;;;11.29;44.16;98710.19;5130150;27;20054;-83
2022/04/20 09:12:19;;;;;;;3.25;2.55;;;;;;;11.36;40.41;98732.00;5110672;28;20494;-83
2022/04/20 09:14:50;;;;;;;6.50;2.13;;;;;;;11.18;42.09;98732.53;5127655;27;20043;-83
2022/04/20 09:17:18;;;;;;;3.80;2.22;;;;;;;11.02;41.27;98730.94;5128123;27;20379;-82
2022/04/20 09:19:45;;;;;;;3.25;2.30;;;;;;;10.66;41.41;98705.59;5129249;27;20557;-83
2022/04/20 09:22:22;;;;;;;3.97;2.10;;;;;;;11.02;45.80;98733.66;5131495;27;20043;-83
2022/04/20 09:25:00;;;;;;;3.65;2.20;;;;;;;10.97;43.69;98726.09;5124982;27;20130;-83
2022/04/20 09:27:27;;;;;;;3.42;2.10;;;;;;;11.19;42.74;98716.00;5111474;28;20075;-83
2022/04/20 09:29:55;;;;;;;4.20;2.63;;;;;;;11.32;40.01;98726.97;5119377;27;20057;-83
2022/04/20 09:32:36;;;;;;;2.55;2.03;;;;;;;11.26;40.69;98706.00;5137285;27;20055;-83
2022/04/20 09:35:05;;;;;;;4.25;2.13;;;;;;;11.48;43.96;98722.22;5126897;27;20051;-83
2022/04/20 09:37:34;;;;;;;3.55;2.25;;;;;;;11.51;43.79;98708.22;5126529;27;20546;-83
2022/04/20 09:40:01;;;;;;;3.53;2.05;;;;;;;11.49;42.49;98718.47;5130765;27;20043;-83
2022/04/20 09:42:29;;;;;;;2.60;1.90;;;;;;;11.56;41.11;98726.66;5125084;27;20287;-84
2022/04/20 09:44:59;;;;;;;15.20;2.75;;;;;;;11.58;41.33;98700.94;5132200;27;20073;-84
2022/04/20 09:50:13;;;;;;;2.25;1.90;;;;;;;11.89;41.63;98704.19;5131826;27;20058;-83
2022/04/20 09:52:43;;;;;;;5.32;2.55;;;;;;;12.16;41.16;98714.16;5130726;27;20354;-84
2022/04/20 09:55:12;;;;;;;2.45;1.70;;;;;;;12.26;39.56;98716.47;5120592;27;20079;-83
2022/04/20 09:57:40;;;;;;;2.75;1.98;;;;;;;12.08;39.29;98705.31;5110305;27;20482;-83
2022/04/20 10:00:11;;;;;;;4.47;2.08;;;;;;;11.93;40.57;98694.59;5131175;27;20142;-84
2022/04/20 10:02:38;;;;;;;3.00;1.95;;;;;;;11.98;40.18;98716.59;5134229;27;20047;-83
2022/04/20 10:05:05;;;;;;;4.32;2.00;;;;;;;11.66;40.53;98686.28;5135847;27;20409;-84
2022/04/20 10:07:32;;;;;;;5.60;1.52;;;;;;;11.96;40.30;98695.00;5135379;27;20087;-84
2022/04/20 10:10:00;;;;;;;3.30;2.13;;;;;;;12.14;40.83;98696.31;5135234;27;20054;-84
2022/04/20 10:12:31;;;;;;;3.10;2.20;;;;;;;12.31;43.18;98683.97;5133137;27;20054;-84
2022/04/20 10:17:47;;;;;;;2.00;1.58;;;;;;;12.46;39.62;98686.50;5134222;27;20618;-83
2022/04/20 10:20:14;;;;;;;2.70;2.20;;;;;;;12.33;40.92;98675.56;5135289;27;20091;-83
2022/04/20 10:22:42;;;;;;;2.88;2.17;;;;;;;12.16;39.20;98689.63;5134693;27;20482;-84
2022/04/20 10:25:12;;;;;;;3.42;2.35;;;;;;;12.29;37.29;98682.50;5134783;27;20092;-83
2022/04/20 10:27:55;;;;;;;2.90;1.95;;;;;;;12.56;39.58;98678.75;5135044;27;20051;-83
2022/04/20 10:30:27;;;;;;;4.20;1.75;;;;;;;12.77;37.08;98674.13;5129569;27;20051;-84
2022/04/20 10:32:59;;;;;;;2.65;2.15;;;;;;;12.65;37.78;98670.38;5133478;27;20122;-83
2022/04/20 10:35:26;;;;;;;2.80;2.05;;;;;;;12.30;36.40;98684.16;5134709;27;20046;-83
2022/04/20 10:38:09;;;;;;;3.85;2.33;;;;;;;12.35;39.62;98643.50;5134398;27;20051;-83
2022/04/20 10:40:55;;;;;;;3.97;1.80;;;;;;;12.61;38.69;98639.94;5134668;27;20411;-83
2022/04/20 10:43:23;;;;;;;4.53;2.13;;;;;;;12.94;37.89;98660.88;5133346;27;20583;-84
2022/04/20 10:46:18;;;;;;;3.65;2.35;;;;;;;12.95;36.09;98664.44;5131811;27;20043;-83
2022/04/20 10:48:50;;;;;;;2.55;1.90;;;;;;;12.45;36.22;98641.22;5091867;27;20050;-83
2022/04/20 10:51:17;;;;;;;2.72;2.05;;;;;;;12.44;35.84;98633.25;5134619;27;20047;-83
2022/04/20 10:53:46;;;;;;;4.35;1.90;;;;;;;12.54;36.72;98633.63;5130677;27;20414;-83
2022/04/20 10:56:14;;;;;;;2.28;1.52;;;;;;;12.79;36.04;98644.75;5113732;28;20051;-84
2022/04/20 10:59:08;;;;;;;2.20;1.52;;;;;;;12.87;36.36;98649.13;5113703;28;20047;-83
2022/04/20 11:02:12;;;;;;;2.15;1.77;;;;;;;13.04;33.30;98634.00;5119602;27;20053;-83
2022/04/20 11:04:41;;;;;;;2.90;1.95;;;;;;;13.29;36.79;98646.91;5133946;27;20065;-84
2022/04/20 11:07:23;;;;;;;2.33;1.73;;;;;;;13.25;37.04;98649.25;5122175;27;20412;-84
2022/04/20 11:10:06;;;;;;;3.83;1.85;;;;;;;13.04;33.73;98642.19;5120922;27;20047;-83
2022/04/20 11:18:42;;;;;;;2.83;2.05;;;;;;;13.68;36.70;98623.25;5032397;28;20057;-83
2022/04/20 11:21:21;;;;;;;2.72;1.83;;;;;;;13.81;35.67;98619.63;5125821;27;20062;-83
2022/04/20 11:23:59;;;;;;;2.80;2.30;;;;;;;14.03;36.15;98631.06;5130728;27;20482;-84
2022/04/20 11:26:28;;;;;;;1.90;1.70;;;;;;;14.16;34.38;98621.91;5125091;27;20146;-84
2022/04/20 11:28:59;;;;;;;3.23;2.00;;;;;;;14.47;33.83;98615.56;5113471;28;20052;-84
2022/04/20 11:31:25;;;;;;;;;;;;;;;14.20;34.26;98616.88;5113939;28;20059;-83
2022/04/20 11:33:54;;;;;;;2.92;1.83;;;;;;;14.13;35.80;98590.38;5116827;27;20020;-83
2022/04/20 11:36:22;;;;;;;2.30;1.88;;;;;;;14.29;33.20;98590.91;5133532;27;20039;-83
2022/04/20 11:38:50;;;;;;;7.47;1.67;;;;;;;14.47;34.80;98593.69;5131770;27;20053;-83
2022/04/20 11:41:19;;;;;;;2.55;1.70;;;;;;;14.68;34.95;98599.84;5133572;27;20058;-83
2022/04/20 11:43:47;;;;;;;2.30;1.75;;;;;;;15.03;35.30;98602.00;5132892;27;20489;-82
2022/04/20 11:46:16;;;;;;;1.92;1.58;;;;;;;15.16;34.98;98590.06;5133224;27;20049;-83
2022/04/20 11:48:56;;;;;;;4.15;1.90;;;;;;;14.22;32.53;98571.81;5133761;27;20121;-83
2022/04/20 11:51:25;;;;;;;2.20;1.80;;;;;;;14.38;32.27;98589.56;5126535;27;20047;-82
2022/04/20 11:53:53;;;;;;;2.63;1.70;;;;;;;14.76;32.92;98596.00;5113420;27;20047;-82
2022/04/20 11:56:34;;;;;;;3.17;1.70;;;;;;;14.97;34.52;98575.56;5127458;27;20042;-83
2022/04/20 11:59:01;;;;;;;3.50;1.70;;;;;;;15.33;31.63;98585.66;5144302;27;20043;-82
2022/04/20 12:01:33;;;;;;;3.45;2.00;;;;;;;15.28;31.13;98592.88;5117428;27;20050;-82
2022/04/20 12:04:02;;;;;;;7.25;2.67;;;;;;;15.17;30.44;98569.84;5111886;28;20062;-82
2022/04/20 12:06:30;;;;;;;2.92;1.42;;;;;;;15.18;33.37;98564.13;5112730;28;20523;-83
2022/04/20 12:08:57;;;;;;;2.13;1.42;;;;;;;15.10;31.91;98563.59;5121680;27;20047;-82
2022/04/20 12:11:24;;;;;;;4.45;1.98;;;;;;;15.32;30.47;98567.53;5119189;27;20051;-83
2022/04/20 12:13:58;;;;;;;1.80;1.40;;;;;;;15.53;31.15;98559.91;5111783;27;20071;-83
2022/04/20 12:16:27;;;;;;;1.95;1.40;;;;;;;15.38;30.66;98546.59;5133329;27;20039;-82
2022/04/20 12:18:55;;;;;;;1.55;1.10;;;;;;;15.82;31.45;98555.53;5133030;27;20126;-82
2022/04/20 12:21:42;;;;;;;3.20;1.30;;;;;;;15.88;30.62;98565.53;5132768;27;20043;-82
2022/04/20 12:24:20;;;;;;;1.63;1.52;;;;;;;15.86;32.11;98528.47;5116611;27;20056;-83
2022/04/20 12:26:50;;;;;;;2.97;1.35;;;;;;;16.19;31.02;98571.78;5131729;27;20047;-83
2022/04/20 12:29:18;;;;;;;;;;;;;;;16.09;29.32;98550.44;5116913;27;20040;-82
2022/04/20 12:31:46;;;;;;;1.58;1.40;;;;;;;16.12;32.13;98540.91;5120386;27;20012;-82
2022/04/20 12:34:21;;;;;;;1.88;1.52;;;;;;;15.96;29.28;98553.41;5131361;27;20487;-83
2022/04/20 12:36:59;;;;;;;1.92;1.73;;;;;;;15.18;30.05;98552.34;5132863;27;20043;-83
2022/04/20 12:39:31;;;;;;;2.90;1.83;;;;;;;15.49;29.63;98554.06;5119345;27;20082;-83
2022/04/20 12:41:59;;;;;;;2.60;1.50;;;;;;;15.49;31.14;98521.19;5114677;27;20047;-82
2022/04/20 12:44:36;;;;;;;3.83;1.77;;;;;;;15.63;30.84;98543.75;5130383;27;20436;-83
2022/04/20 12:47:04;;;;;;;3.80;1.67;;;;;;;15.62;31.19;98527.53;5115908;27;20054;-82
2022/04/20 12:49:32;;;;;;;5.90;1.90;;;;;;;15.90;30.65;98529.69;5127080;27;20051;-83
2022/04/20 12:52:08;;;;;;;2.50;1.60;;;;;;;16.48;31.57;98530.78;5131733;27;20051;-83
2022/04/20 12:54:37;;;;;;;3.45;1.77;;;;;;;16.36;29.77;98546.41;5130981;27;20402;-82
2022/04/20 13:02:58;;;;;;;3.95;1.58;;;;;;;15.91;29.28;98526.69;5111974;27;20370;-83
2022/04/20 13:05:26;;;;;;;2.53;1.30;;;;;;;16.03;30.33;98523.13;5117005;27;20047;-81
2022/04/20 13:07:53;;;;;;;1.63;1.52;;;;;;;16.20;31.12;98526.00;5132138;27;20061;-82
2022/04/20 13:10:22;;;;;;;1.58;1.48;;;;;;;16.09;31.81;98517.53;5132163;27;20513;-82
2022/04/20 13:12:56;;;;;;;2.95;1.52;;;;;;;16.42;31.95;98515.28;5128107;27;20046;-83
2022/04/20 13:15:25;;;;;;;3.25;1.65;;;;;;;16.75;29.75;98513.81;5132495;27;20054;-83
2022/04/20 13:17:52;;;;;;;1.93;1.40;;;;;;;16.43;28.87;98520.53;5131465;27;20043;-82
2022/04/20 13:20:20;;;;;;;2.45;1.60;;;;;;;16.10;31.20;98501.91;5132069;27;20051;-82
2022/04/20 13:22:52;;;;;;;2.10;1.80;;;;;;;15.83;30.39;98512.50;5130149;27;20456;-81
2022/04/20 13:28:03;;;;;;;2.85;1.60;;;;;;;15.70;31.73;98508.88;5143649;27;20050;-82
2022/04/20 13:30:35;;;;;;;3.08;1.75;;;;;;;15.96;30.18;98516.91;5131071;27;20070;-83
2022/04/20 13:33:10;;;;;;;2.00;1.70;;;;;;;16.34;29.97;98502.75;5111008;28;20055;-83
2022/04/20 13:35:40;;;;;;;2.47;1.45;;;;;;;16.19;29.59;98497.75;5112811;28;20060;-82
2022/04/20 13:38:09;;;;;;;2.60;1.60;;;;;;;16.33;31.70;98503.00;5115382;28;20261;-82
2022/04/20 13:40:38;;;;;;;2.47;1.80;;;;;;;16.38;29.98;98505.84;5114710;27;20098;-82
2022/04/20 13:43:06;;;;;;;2.42;1.75;;;;;;;16.24;30.21;98491.56;5131735;27;20126;-82
2022/04/20 13:45:34;;;;;;;1.95;1.65;;;;;;;16.61;28.60;98489.38;5136007;27;20724;-83
2022/04/20 13:48:24;;;;;;;4.00;1.60;;;;;;;16.61;31.18;98508.59;5136196;27;20050;-82
2022/04/20 13:50:52;;;;;;;2.38;2.17;;;;;;;16.21;28.65;98492.03;5135740;27;20092;-82
2022/04/20 13:53:29;;;;;;;5.25;2.08;;;;;;;16.04;28.94;98497.38;5135398;27;20359;-82
2022/04/20 13:55:59;;;;;;;2.47;1.77;;;;;;;15.83;29.48;98485.91;5136758;27;20099;-83
2022/04/20 13:58:25;;;;;;;2.30;1.97;;;;;;;15.86;30.29;98488.19;5121910;27;20042;-85
2022/04/20 14:00:52;;;;;;;2.90;2.17;;;;;;;15.74;30.13;98507.31;5132930;27;20055;-83
2022/04/20 14:03:23;;;;;;;2.03;1.60;;;;;;;15.93;29.78;98497.13;5135569;27;20046;-84
2022/04/20 14:05:51;;;;;;;3.53;2.53;;;;;;;16.02;29.74;98497.63;5135041;27;20371;-84
2022/04/20 14:08:21;;;;;;;3.50;1.88;;;;;;;16.09;29.22;98505.72;5135539;27;20051;-84
2022/04/20 14:10:53;;;;;;;6.55;2.20;;;;;;;16.26;30.51;98486.69;5133777;27;20505;-83
2022/04/20 14:13:19;;;;;;;3.03;2.10;;;;;;;16.59;29.59;98486.06;5121252;27;20047;-84
2022/04/20 14:15:46;;;;;;;2.70;2.00;;;;;;;16.64;29.09;98502.63;5133009;27;20039;-83
2022/04/20 14:18:13;;;;;;;5.20;1.92;;;;;;;16.42;28.84;98498.81;5145396;27;20043;-83
2022/04/20 14:20:42;;;;;;;3.05;2.15;;;;;;;16.20;28.79;98488.47;5155851;27;20137;-83
2022/04/20 14:23:11;;;;;;;3.13;1.98;;;;;;;16.28;28.58;98501.81;5136937;27;20308;-82
2022/04/20 14:33:55;;;;;;;3.17;2.28;;;;;;;16.56;27.94;98502.16;5126503;27;20414;-83
2022/04/20 14:36:21;;;;;;;3.22;2.20;;;;;;;16.52;28.92;98493.56;5134445;27;20274;-83
2022/04/20 14:38:52;;;;;;;3.55;2.65;;;;;;;16.22;28.90;98494.53;5134317;27;20047;-83
2022/04/20 14:41:22;;;;;;;4.80;2.85;;;;;;;16.23;31.01;98504.44;5135246;27;20047;-83
2022/04/20 14:43:51;;;;;;;2.92;2.28;;;;;;;16.20;29.62;98498.56;5134158;27;20051;-83
2022/04/20 14:46:19;;;;;;;3.60;2.65;;;;;;;16.00;29.71;98480.56;5120426;27;20138;-82
2022/04/20 14:48:51;;;;;;;3.72;2.70;;;;;;;16.02;29.83;98491.31;5122762;27;20088;-83
2022/04/20 14:51:21;;;;;;;4.97;2.72;;;;;;;16.37;30.37;98504.19;5134964;27;20058;-83
2022/04/20 14:53:47;;;;;;;;;;;;;;;16.60;29.39;98497.84;5128682;27;20395;-83
2022/04/20 14:56:16;;;;;;;3.72;2.80;;;;;;;16.28;28.50;98490.84;5134501;27;20564;-83
2022/04/20 14:58:55;;;;;;;5.88;2.70;;;;;;;16.81;28.69;98501.88;5134690;27;20075;-83
2022/04/20 15:01:23;;;;;;;5.10;2.92;;;;;;;16.77;29.73;98496.06;5130569;27;20051;-83
2022/04/20 15:03:50;;;;;;;8.80;2.85;;;;;;;16.78;28.93;98494.13;5133713;27;20051;-82
2022/04/20 15:06:19;;;;;;;7.72;2.88;;;;;;;16.96;29.36;98480.25;5134640;27;20046;-82
2022/04/20 15:08:48;;;;;;;6.45;2.60;;;;;;;17.10;30.62;98490.97;5133571;27;20474;-82
2022/04/20 15:11:14;;;;;;;8.18;2.55;;;;;;;17.16;28.75;98488.09;5134219;27;20394;-83
2022/04/20 15:13:41;;;;;;;8.50;2.97;;;;;;;17.27;29.35;98480.88;5133357;27;20050;-83
2022/04/20 15:16:37;;;;;;;6.75;3.33;;;;;;;16.34;28.86;98469.84;5133454;27;20474;-82
2022/04/20 15:19:04;;;;;;;8.52;2.92;;;;;;;16.15;29.15;98487.50;5108443;27;20055;-82
2022/04/20 15:21:31;;;;;;;4.07;3.10;;;;;;;16.23;29.72;98476.19;5122638;27;20043;-83
2022/04/20 15:24:01;;;;;;;5.13;2.97;;;;;;;16.46;30.63;98478.91;5133406;27;20039;-83
2022/04/20 15:26:30;;;;;;;3.95;3.13;;;;;;;16.54;30.11;98474.94;5132476;27;20058;-83
2022/04/20 15:28:56;;;;;;;5.25;3.10;;;;;;;16.55;30.16;98468.41;5133432;27;20439;-83
2022/04/20 15:31:24;;;;;;;8.65;3.28;;;;;;;16.64;30.19;98466.94;5132711;27;20134;-82
2022/04/20 15:33:52;;;;;;;5.03;3.40;;;;;;;16.72;29.20;98475.88;5132810;27;20409;-82
2022/04/20 15:36:19;;;;;;;5.78;3.10;;;;;;;16.54;31.48;98471.38;5134041;27;20071;-83
2022/04/20 15:38:45;;;;;;;4.55;3.33;;;;;;;16.60;30.54;98504.16;5124381;27;20503;-83
2022/04/20 15:41:13;;;;;;;6.43;3.22;;;;;;;16.30;30.39;98484.28;5112992;28;20347;-84
2022/04/20 15:43:40;;;;;;;4.93;3.58;;;;;;;16.58;30.67;98483.56;5127419;27;20142;-84
2022/04/20 15:46:07;;;;;;;4.75;3.40;;;;;;;16.42;28.78;98482.38;5122800;27;20138;-84
2022/04/20 15:48:34;;;;;;;5.43;3.25;;;;;;;16.41;30.48;98461.47;5133795;27;20078;-84
2022/04/20 15:51:03;;;;;;;4.43;2.83;;;;;;;16.44;29.96;98477.50;5123265;27;20047;-84
2022/04/20 15:53:32;;;;;;;4.72;3.33;;;;;;;16.31;29.49;98455.78;5126508;27;20096;-83
2022/04/20 16:01:30;;;;;;;4.20;3.15;;;;;;;15.69;29.48;98471.56;5132977;27;20074;-83
2022/04/20 16:03:56;;;;;;;6.78;3.38;;;;;;;15.76;29.09;98474.19;5122124;27;20057;-84
2022/04/20 16:06:24;;;;;;;3.58;2.80;;;;;;;15.86;28.68;98454.47;5113471;28;20078;-84
2022/04/20 16:08:51;;;;;;;4.55;3.25;;;;;;;16.14;29.10;98472.97;5113083;27;20066;-83
2022/04/20 16:11:18;;;;;;;5.05;3.63;;;;;;;15.95;28.34;98468.66;5133622;27;20085;-83
2022/04/20 16:13:44;;;;;;;8.32;3.05;;;;;;;15.95;29.86;98472.22;5132398;27;20058;-83
2022/04/20 16:16:11;;;;;;;11.93;3.45;;;;;;;15.78;30.04;98450.16;5124939;27;20130;-83
2022/04/20 16:18:38;;;;;;;3.55;3.00;;;;;;;15.66;28.70;98466.56;5118842;27;20039;-83
2022/04/20 16:21:05;;;;;;;6.72;2.63;;;;;;;15.70;28.99;98467.75;5112298;28;20127;-83
2022/04/20 16:23:34;;;;;;;4.05;2.75;;;;;;;15.34;29.62;98464.09;5117718;27;20054;-84
2022/04/20 16:26:01;;;;;;;5.13;3.10;;;;;;;15.33;31.92;98461.59;5132407;27;20055;-84
2022/04/20 16:28:30;;;;;;;7.03;3.35;;;;;;;15.31;29.29;98464.56;5132692;27;20479;-82
2022/04/20 16:30:57;;;;;;;5.63;3.55;;;;;;;15.08;29.52;98467.19;5128207;27;20107;-83
2022/04/20 16:33:24;;;;;;;3.70;3.00;;;;;;;15.21;29.72;98467.00;5119486;27;20059;-83
2022/04/20 16:35:51;;;;;;;4.40;3.70;;;;;;;15.11;29.75;98469.47;5112235;27;20471;-83
2022/04/20 16:38:18;;;;;;;5.03;3.35;;;;;;;15.02;31.54;98480.75;5114825;27;20048;-83
2022/04/20 16:40:48;;;;;;;4.72;3.15;;;;;;;14.88;30.32;98475.69;5130639;27;20051;-83
2022/04/20 16:43:15;;;;;;;;;;;;;;;14.71;29.81;98481.75;5133277;27;20081;-84
2022/04/20 16:45:41;;;;;;;5.10;3.05;;;;;;;14.60;29.79;98466.91;5132765;27;19919;-83
2022/04/20 16:48:08;;;;;;;5.55;3.60;;;;;;;14.46;30.52;98454.44;5116909;27;20104;-83
2022/04/20 16:50:38;;;;;;;8.77;3.28;;;;;;;14.46;30.54;98470.84;5120329;27;20059;-85
2022/04/20 16:53:05;;;;;;;4.85;3.40;;;;;;;14.42;29.79;98470.50;5113581;27;20398;-84
2022/04/20 16:55:31;;;;;;;6.15;2.78;;;;;;;14.50;30.12;98469.34;5124787;27;20451;-83
2022/04/20 16:57:59;;;;;;;5.80;3.50;;;;;;;14.33;29.83;98461.75;5131943;27;20134;-85
2022/04/20 17:00:26;;;;;;;5.90;2.90;;;;;;;14.31;30.84;98457.56;5112328;28;20460;-84
